createdAt,value
2018-02-15T00:01:59.893Z,75.30
2018-02-15T00:04:35.570Z,75.30
2018-02-15T00:07:06.066Z,75.10
2018-02-15T00:09:37.607Z,74.90
2018-02-15T00:12:08.838Z,74.80
2018-02-15T00:14:40.273Z,74.80
2018-02-15T00:17:10.739Z,74.80
2018-02-15T00:19:41.977Z,74.90
2018-02-15T00:22:13.951Z,74.90
2018-02-15T00:24:44.333Z,74.80
2018-02-15T00:27:15.241Z,74.60
2018-02-15T00:29:45.729Z,74.70
2018-02-15T00:32:16.996Z,74.10
2018-02-15T00:34:47.503Z,74.10
2018-02-15T00:37:19.227Z,73.60
2018-02-15T00:39:49.946Z,73.50
2018-02-15T00:42:20.426Z,73.10
2018-02-15T00:44:52.109Z,72.20
2018-02-15T00:47:22.625Z,72.20
2018-02-15T00:49:53.074Z,72.00
2018-02-15T00:52:23.569Z,71.70
2018-02-15T00:54:54.770Z,70.60
2018-02-15T00:57:30.454Z,70.50
2018-02-15T01:00:01.700Z,70.60
2018-02-15T01:02:32.889Z,70.10
2018-02-15T01:05:03.271Z,70.00
2018-02-15T01:07:34.426Z,69.70
2018-02-15T01:10:06.633Z,69.80
2018-02-15T01:12:37.101Z,69.80
2018-02-15T01:15:08.585Z,67.90
2018-02-15T01:17:39.059Z,67.80
2018-02-15T01:20:10.386Z,67.20
2018-02-15T01:22:40.904Z,67.10
2018-02-15T01:25:11.425Z,66.90
2018-02-15T01:27:42.298Z,66.40
2018-02-15T01:30:12.713Z,66.20
2018-02-15T01:32:43.326Z,66.50
2018-02-15T01:35:13.790Z,65.20
2018-02-15T01:37:44.236Z,65.20
2018-02-15T01:40:15.696Z,66.60
2018-02-15T01:42:46.926Z,66.00
2018-02-15T01:45:19.666Z,66.30
2018-02-15T01:47:50.154Z,66.20
2018-02-15T01:50:21.362Z,66.10
2018-02-15T01:52:51.901Z,66.10
2018-02-15T01:55:22.334Z,66.40
2018-02-15T01:57:53.385Z,65.90
2018-02-15T02:00:24.645Z,66.00
2018-02-15T02:02:55.826Z,65.60
2018-02-15T02:05:26.321Z,65.60
2018-02-15T02:07:56.779Z,65.70
2018-02-15T02:10:27.262Z,65.50
2018-02-15T02:12:58.468Z,65.20
2018-02-15T02:15:29.286Z,65.20
2018-02-15T02:17:59.744Z,65.30
2018-02-15T02:20:30.193Z,64.90
2018-02-15T02:23:01.390Z,65.00
2018-02-15T02:25:31.872Z,64.90
2018-02-15T02:28:03.623Z,63.50
2018-02-15T02:30:34.767Z,64.00
2018-02-15T02:33:06.307Z,64.00
2018-02-15T02:35:36.806Z,63.90
2018-02-15T02:38:08.309Z,63.40
2018-02-15T02:40:38.708Z,63.30
2018-02-15T02:43:09.097Z,63.10
2018-02-15T02:45:39.501Z,62.80
2018-02-15T02:48:09.933Z,62.80
2018-02-15T02:50:40.438Z,62.70
2018-02-15T02:53:11.678Z,62.30
2018-02-15T02:55:42.851Z,62.00
2018-02-15T02:58:13.255Z,62.00
2018-02-15T03:00:44.519Z,61.10
2018-02-15T03:03:15.025Z,61.10
2018-02-15T03:05:46.188Z,61.00
2018-02-15T03:08:16.658Z,61.00
2018-02-15T03:10:47.143Z,61.10
2018-02-15T03:13:17.646Z,60.90
2018-02-15T03:15:49.195Z,61.10
2018-02-15T03:18:20.376Z,60.70
2018-02-15T03:20:50.880Z,60.70
2018-02-15T03:23:22.117Z,60.30
2018-02-15T03:25:53.340Z,60.40
2018-02-15T03:28:25.510Z,60.50
2018-02-15T03:30:56.012Z,60.70
2018-02-15T03:33:26.933Z,60.60
2018-02-15T03:35:57.325Z,60.50
2018-02-15T03:38:28.577Z,60.70
2018-02-15T03:40:59.738Z,61.00
2018-02-15T03:43:30.210Z,61.00
2018-02-15T03:46:01.186Z,60.80
2018-02-15T03:48:32.350Z,61.60
2018-02-15T03:51:03.309Z,61.50
2018-02-15T03:53:33.754Z,62.10
2018-02-15T03:56:04.250Z,63.00
2018-02-15T03:58:34.717Z,61.70
2018-02-15T04:01:05.086Z,61.90
2018-02-15T04:03:36.049Z,61.90
2018-02-15T04:06:06.459Z,61.20
2018-02-15T04:08:37.732Z,61.80
2018-02-15T04:11:08.232Z,61.60
2018-02-15T04:13:38.663Z,60.90
2018-02-15T04:16:09.158Z,61.30
2018-02-15T04:18:39.749Z,61.70
2018-02-15T04:21:10.173Z,61.80
2018-02-15T04:23:40.649Z,61.00
2018-02-15T04:26:11.484Z,60.60
2018-02-15T04:28:42.746Z,60.60
2018-02-15T04:31:13.748Z,60.50
2018-02-15T04:33:44.685Z,59.50
2018-02-15T04:36:15.134Z,60.00
2018-02-15T04:38:46.656Z,59.50
2018-02-15T04:41:17.089Z,59.50
2018-02-15T04:43:47.494Z,59.70
2018-02-15T04:46:17.910Z,58.90
2018-02-15T04:48:49.027Z,58.70
2018-02-15T04:51:19.846Z,59.30
2018-02-15T04:53:51.119Z,58.90
2018-02-15T04:56:21.622Z,58.80
2018-02-15T04:58:52.841Z,59.10
2018-02-15T05:01:23.318Z,59.10
2018-02-15T05:03:53.691Z,59.10
2018-02-15T05:06:24.153Z,59.30
2018-02-15T05:08:55.711Z,58.90
2018-02-15T05:11:26.186Z,58.80
2018-02-15T05:13:56.654Z,58.50
2018-02-15T05:16:27.898Z,57.20
2018-02-15T05:18:59.150Z,56.90
2018-02-15T05:21:30.670Z,56.00
2018-02-15T05:24:01.150Z,56.00
2018-02-15T05:26:31.694Z,55.90
2018-02-15T05:29:02.187Z,54.00
2018-02-15T05:31:33.442Z,53.00
2018-02-15T05:34:03.857Z,52.90
2018-02-15T05:36:35.131Z,49.20
2018-02-15T05:39:06.750Z,49.60
2018-02-15T05:41:38.325Z,48.90
2018-02-15T05:44:08.821Z,48.90
2018-02-15T05:46:39.290Z,47.00
2018-02-15T05:49:09.798Z,47.40
2018-02-15T05:51:41.462Z,50.40
2018-02-15T05:54:11.902Z,50.40
2018-02-15T05:56:42.581Z,49.00
2018-02-15T05:59:12.942Z,48.90
2018-02-15T06:01:43.413Z,48.90
2018-02-15T06:04:13.883Z,47.80
2018-02-15T06:06:45.107Z,46.40
2018-02-15T06:09:15.633Z,46.40
2018-02-15T06:11:46.351Z,44.50
2018-02-15T06:14:16.778Z,44.60
2018-02-15T06:16:47.350Z,44.90
2018-02-15T06:19:18.484Z,41.80
2018-02-15T06:21:49.938Z,41.20
2018-02-15T06:24:21.165Z,40.20
2018-02-15T06:26:52.038Z,40.20
2018-02-15T06:29:22.499Z,40.30
2018-02-15T06:31:52.960Z,41.00
2018-02-15T06:34:23.417Z,39.20
2018-02-15T06:36:53.880Z,39.60
2018-02-15T06:39:24.854Z,41.60
2018-02-15T06:41:55.250Z,41.80
2018-02-15T06:44:25.688Z,42.10
2018-02-15T06:46:56.168Z,41.20
2018-02-15T06:49:28.528Z,42.40
2018-02-15T06:51:59.751Z,41.60
2018-02-15T06:54:30.155Z,41.60
2018-02-15T06:57:00.972Z,42.10
2018-02-15T06:59:31.377Z,43.40
2018-02-15T07:02:01.998Z,44.30
2018-02-15T07:04:32.501Z,44.30
2018-02-15T07:07:02.922Z,44.10
2018-02-15T07:09:33.649Z,43.60
2018-02-15T07:12:04.149Z,43.60
2018-02-15T07:14:35.110Z,43.20
2018-02-15T07:17:05.601Z,45.00
2018-02-15T07:19:36.032Z,43.40
2018-02-15T07:22:06.432Z,43.10
2018-02-15T07:24:37.721Z,42.40
2018-02-15T07:27:08.342Z,42.40
2018-02-15T07:29:38.837Z,42.80
2018-02-15T07:32:10.120Z,42.90
2018-02-15T07:34:40.535Z,42.90
2018-02-15T07:37:11.618Z,43.10
2018-02-15T07:39:42.106Z,42.90
2018-02-15T07:42:12.609Z,43.40
2018-02-15T07:44:44.015Z,42.90
2018-02-15T07:47:14.561Z,42.90
2018-02-15T07:49:45.219Z,42.60
2018-02-15T07:52:16.606Z,42.90
2018-02-15T07:54:47.321Z,42.80
2018-02-15T07:57:18.305Z,43.60
2018-02-15T07:59:48.807Z,42.50
2018-02-15T08:02:19.674Z,41.80
2018-02-15T08:04:50.117Z,42.30
2018-02-15T08:07:21.317Z,42.80
2018-02-15T08:09:51.778Z,42.80
2018-02-15T08:12:22.295Z,42.60
2018-02-15T08:14:52.896Z,42.90
2018-02-15T08:17:23.693Z,42.60
2018-02-15T08:19:54.830Z,42.60
2018-02-15T08:22:25.306Z,42.60
2018-02-15T08:24:55.770Z,42.90
2018-02-15T08:27:26.162Z,43.10
2018-02-15T08:29:56.619Z,43.80
2018-02-15T08:32:28.037Z,43.70
2018-02-15T08:34:59.227Z,43.50
2018-02-15T08:37:30.451Z,44.10
2018-02-15T08:40:01.011Z,44.00
2018-02-15T08:42:32.223Z,43.50
2018-02-15T08:45:02.754Z,43.50
2018-02-15T08:47:33.214Z,44.30
2018-02-15T08:50:04.694Z,44.30
2018-02-15T08:52:35.062Z,44.40
2018-02-15T08:55:05.452Z,44.10
2018-02-15T08:57:35.952Z,44.10
2018-02-15T09:00:06.396Z,43.80
2018-02-15T09:02:37.062Z,44.20
2018-02-15T09:05:07.546Z,43.80
2018-02-15T09:07:37.962Z,43.80
2018-02-15T09:10:09.216Z,45.00
2018-02-15T09:12:39.705Z,45.00
2018-02-15T09:15:10.103Z,45.20
2018-02-15T09:17:40.556Z,45.50
2018-02-15T09:20:11.450Z,45.60
2018-02-15T09:22:41.906Z,45.30
2018-02-15T09:25:12.364Z,45.40
2018-02-15T09:27:44.111Z,44.90
2018-02-15T09:30:14.568Z,44.90
2018-02-15T09:32:45.003Z,44.80
2018-02-15T09:35:15.470Z,44.90
2018-02-15T09:37:46.514Z,45.00
2018-02-15T09:40:17.003Z,45.20
2018-02-15T09:42:47.418Z,45.80
2018-02-15T09:45:17.813Z,46.10
2018-02-15T09:47:48.284Z,46.20
2018-02-15T09:50:18.884Z,46.80
2018-02-15T09:52:50.081Z,46.40
2018-02-15T09:55:20.525Z,46.40
2018-02-15T09:57:50.973Z,47.10
2018-02-15T10:00:21.517Z,46.10
2018-02-15T10:02:52.797Z,45.60
2018-02-15T10:05:23.298Z,45.60
2018-02-15T10:07:54.884Z,44.80
2018-02-15T10:10:25.346Z,44.80
2018-02-15T10:12:55.954Z,44.90
2018-02-15T10:15:26.493Z,44.70
2018-02-15T10:17:57.542Z,44.70
2018-02-15T10:20:28.383Z,44.40
2018-02-15T10:22:58.834Z,43.70
2018-02-15T10:25:30.284Z,44.60
2018-02-15T10:28:01.615Z,45.20
2018-02-15T10:30:32.030Z,45.20
2018-02-15T10:33:02.561Z,45.20
2018-02-15T10:35:32.974Z,45.60
2018-02-15T10:38:03.621Z,45.90
2018-02-15T10:40:34.063Z,46.20
2018-02-15T10:43:04.533Z,46.00
2018-02-15T10:45:35.006Z,45.80
2018-02-15T10:48:05.473Z,46.20
2018-02-15T10:50:36.349Z,46.30
2018-02-15T10:53:06.768Z,46.50
2018-02-15T10:55:37.682Z,46.50
2018-02-15T10:58:08.076Z,46.70
2018-02-15T11:00:57.065Z,46.80
2018-02-15T11:03:33.626Z,47.00
2018-02-15T11:06:04.989Z,47.00
2018-02-15T11:08:35.845Z,46.90
2018-02-15T11:11:06.236Z,47.20
2018-02-15T11:13:37.497Z,47.40
2018-02-15T11:16:07.959Z,47.40
2018-02-15T11:18:39.465Z,47.50
2018-02-15T11:21:11.053Z,47.20
2018-02-15T11:23:41.544Z,47.30
2018-02-15T11:26:12.010Z,48.10
2018-02-15T11:28:42.510Z,48.30
2018-02-15T11:31:12.946Z,48.60
2018-02-15T11:33:44.190Z,49.00
2018-02-15T11:36:15.565Z,49.20
2018-02-15T11:38:46.278Z,49.20
2018-02-15T11:41:16.771Z,49.40
2018-02-15T11:43:48.115Z,50.00
2018-02-15T11:46:19.414Z,50.30
2018-02-15T11:48:49.898Z,50.30
2018-02-15T11:51:22.705Z,51.50
2018-02-15T11:53:53.188Z,51.50
2018-02-15T11:56:23.828Z,52.10
2018-02-15T11:58:55.117Z,52.80
2018-02-15T12:01:25.661Z,52.80
2018-02-15T12:03:56.146Z,53.10
2018-02-15T12:06:27.895Z,53.90
2018-02-15T12:08:59.154Z,53.60
2018-02-15T12:11:29.672Z,53.50
2018-02-15T12:14:00.835Z,53.70
2018-02-15T12:16:31.245Z,53.70
2018-02-15T12:19:01.806Z,53.50
2018-02-15T12:21:32.608Z,53.60
2018-02-15T12:24:03.886Z,53.50
2018-02-15T12:26:34.610Z,53.50
2018-02-15T12:29:05.107Z,54.00
2018-02-15T12:31:36.263Z,55.10
2018-02-15T12:34:07.469Z,55.20
2018-02-15T12:36:37.913Z,55.20
2018-02-15T12:39:10.251Z,54.80
2018-02-15T12:41:40.727Z,54.60
2018-02-15T12:44:11.975Z,54.60
2018-02-15T12:46:43.226Z,54.30
2018-02-15T12:49:13.768Z,54.30
2018-02-15T12:51:45.322Z,54.20
2018-02-15T12:54:15.778Z,54.40
2018-02-15T12:56:48.600Z,54.30
2018-02-15T12:59:19.863Z,54.30
2018-02-15T13:01:51.107Z,54.30
2018-02-15T13:04:22.496Z,54.70
2018-02-15T13:06:53.898Z,54.70
2018-02-15T13:09:25.637Z,54.80
2018-02-15T13:11:56.034Z,54.80
2018-02-15T13:14:26.496Z,54.60
2018-02-15T13:17:00.245Z,55.20
2018-02-15T13:19:41.229Z,55.20
2018-02-15T13:22:23.460Z,55.60
2018-02-15T13:24:54.677Z,55.80
2018-02-15T13:27:36.311Z,55.80
2018-02-15T13:30:07.130Z,56.30
2018-02-15T13:32:37.550Z,56.40
2018-02-15T13:35:08.687Z,56.10
2018-02-15T13:37:39.115Z,56.10
2018-02-15T13:40:09.730Z,56.20
2018-02-15T13:42:40.167Z,56.40
2018-02-15T13:45:10.565Z,56.60
2018-02-15T13:47:41.977Z,56.70
2018-02-15T13:50:12.459Z,56.50
2018-02-15T13:52:43.063Z,56.70
2018-02-15T13:55:14.818Z,56.70
2018-02-15T13:57:46.067Z,56.70
2018-02-15T14:00:16.605Z,56.70
2018-02-15T14:02:47.229Z,56.70
2018-02-15T14:05:18.132Z,57.00
2018-02-15T14:07:48.665Z,57.20
2018-02-15T14:10:21.043Z,57.30
2018-02-15T14:12:52.227Z,57.50
2018-02-15T14:15:22.754Z,57.50
2018-02-15T14:17:53.265Z,57.70
2018-02-15T14:20:24.536Z,58.10
2018-02-15T14:22:55.399Z,58.10
2018-02-15T14:25:25.993Z,58.20
2018-02-15T14:27:56.507Z,58.30
2018-02-15T14:30:27.158Z,58.40
2018-02-15T14:32:57.606Z,58.50
2018-02-15T14:35:28.452Z,58.50
2018-02-15T14:37:58.946Z,58.50
2018-02-15T14:40:29.739Z,58.60
2018-02-15T14:43:00.248Z,59.20
2018-02-15T14:45:30.727Z,58.80
2018-02-15T14:48:01.252Z,59.10
2018-02-15T14:50:31.802Z,59.10
2018-02-15T14:53:02.729Z,59.10
2018-02-15T14:55:33.921Z,58.90
2018-02-15T14:58:04.695Z,58.80
2018-02-15T15:00:35.312Z,58.60
2018-02-15T15:03:06.618Z,58.30
2018-02-15T15:05:37.333Z,58.30
2018-02-15T15:08:07.861Z,58.10
2018-02-15T15:10:46.569Z,58.60
2018-02-15T15:13:17.396Z,58.50
2018-02-15T15:15:48.671Z,58.80
2018-02-15T15:18:20.038Z,58.80
2018-02-15T15:20:50.521Z,58.70
2018-02-15T15:23:21.690Z,58.80
2018-02-15T15:25:52.513Z,58.90
2018-02-15T15:28:23.010Z,59.20
2018-02-15T15:30:54.242Z,59.40
2018-02-15T15:33:24.818Z,59.30
2018-02-15T15:35:55.331Z,59.30
2018-02-15T15:38:26.593Z,59.70
2018-02-15T15:40:57.361Z,59.70
2018-02-15T15:43:28.240Z,59.70
2018-02-15T15:45:59.515Z,60.00
2018-02-15T15:48:30.010Z,60.00
2018-02-15T15:51:01.355Z,59.80
2018-02-15T15:53:32.995Z,59.60
2018-02-15T15:56:03.886Z,59.50
2018-02-15T15:58:34.622Z,59.80
2018-02-15T16:01:05.028Z,59.80
2018-02-15T16:03:35.846Z,59.80
2018-02-15T16:06:07.152Z,60.50
2018-02-15T16:08:37.721Z,60.40
2018-02-15T16:11:10.263Z,60.80
2018-02-15T16:13:40.830Z,61.50
2018-02-15T16:16:12.393Z,60.80
2018-02-15T16:18:44.328Z,61.40
2018-02-15T16:21:15.601Z,61.60
2018-02-15T16:23:46.967Z,61.70
2018-02-15T16:26:17.429Z,61.70
2018-02-15T16:28:49.473Z,61.60
2018-02-15T16:31:19.866Z,61.80
2018-02-15T16:33:51.344Z,61.90
2018-02-15T16:36:21.849Z,62.20
2018-02-15T16:38:52.434Z,62.40
2018-02-15T16:41:24.185Z,62.60
2018-02-15T16:43:54.802Z,62.50
2018-02-15T16:46:25.289Z,62.50
2018-02-15T16:48:55.807Z,62.20
2018-02-15T16:51:27.296Z,62.30
2018-02-15T16:53:58.326Z,62.30
2018-02-15T16:56:29.031Z,62.60
2018-02-15T16:59:00.686Z,63.10
2018-02-15T17:01:31.902Z,64.00
2018-02-15T17:04:03.021Z,63.10
2018-02-15T17:06:33.634Z,63.40
2018-02-15T17:09:04.114Z,64.00
2018-02-15T17:11:34.942Z,64.20
2018-02-15T17:14:05.486Z,64.60
2018-02-15T17:16:35.930Z,64.90
2018-02-15T17:19:07.065Z,65.10
2018-02-15T17:21:38.408Z,65.30
2018-02-15T17:24:10.684Z,65.50
2018-02-15T17:26:41.994Z,65.60
2018-02-15T17:29:13.151Z,65.60
2018-02-15T17:31:43.553Z,65.60
2018-02-15T17:34:14.033Z,65.60
2018-02-15T17:36:45.234Z,66.20
2018-02-15T17:39:15.610Z,66.20
2018-02-15T17:41:48.122Z,66.80
2018-02-15T17:44:19.039Z,67.50
2018-02-15T17:46:49.478Z,66.90
2018-02-15T17:49:19.929Z,67.00
2018-02-15T17:51:50.386Z,67.20
2018-02-15T17:54:21.469Z,67.70
2018-02-15T17:56:51.919Z,67.60
2018-02-15T17:59:23.662Z,67.80
2018-02-15T18:01:54.173Z,68.00
2018-02-15T18:04:24.536Z,67.90
2018-02-15T18:06:54.929Z,68.10
2018-02-15T18:09:25.386Z,68.40
2018-02-15T18:11:57.082Z,70.00
2018-02-15T18:14:28.249Z,70.70
2018-02-15T18:16:59.832Z,69.70
2018-02-15T18:19:30.219Z,70.00
2018-02-15T18:22:01.428Z,70.40
2018-02-15T18:24:31.883Z,70.30
2018-02-15T18:27:12.237Z,70.80
2018-02-15T18:29:43.852Z,70.80
2018-02-15T18:32:14.281Z,70.80
2018-02-15T18:34:44.720Z,70.90
2018-02-15T18:37:15.147Z,70.90
2018-02-15T18:39:45.608Z,71.10
2018-02-15T18:42:17.821Z,71.40
2018-02-15T18:44:48.569Z,71.30
2018-02-15T18:47:19.339Z,71.50
2018-02-15T18:49:51.426Z,71.60
2018-02-15T18:52:21.833Z,71.60
2018-02-15T18:54:53.067Z,71.70
2018-02-15T18:57:24.266Z,71.90
2018-02-15T18:59:55.150Z,71.80
2018-02-15T19:02:26.630Z,72.20
2018-02-15T19:04:57.027Z,72.20
2018-02-15T19:07:28.191Z,72.00
2018-02-15T19:09:58.582Z,72.00
2018-02-15T19:12:29.431Z,71.90
2018-02-15T19:15:00.683Z,72.40
2018-02-15T19:17:32.288Z,72.50
2018-02-15T19:20:02.670Z,72.50
2018-02-15T19:22:33.837Z,72.50
2018-02-15T19:25:04.274Z,72.50
2018-02-15T19:27:34.741Z,72.50
2018-02-15T19:30:05.437Z,72.60
2018-02-15T19:32:35.866Z,72.60
2018-02-15T19:35:06.377Z,72.60
2018-02-15T19:37:36.794Z,72.80
2018-02-15T19:40:07.268Z,73.00
2018-02-15T19:42:38.243Z,73.30
2018-02-15T19:45:09.437Z,73.60
2018-02-15T19:47:40.342Z,73.60
2018-02-15T19:50:10.782Z,73.60
2018-02-15T19:52:41.259Z,73.60
2018-02-15T19:55:11.609Z,73.60
2018-02-15T19:57:43.198Z,73.60
2018-02-15T20:00:14.711Z,73.50
2018-02-15T20:02:45.950Z,73.40
2018-02-15T20:05:17.102Z,73.30
2018-02-15T20:07:48.312Z,73.30
2018-02-15T20:10:18.706Z,73.30
2018-02-15T20:12:49.109Z,73.20
2018-02-15T20:15:19.822Z,73.10
2018-02-15T20:17:51.230Z,73.00
2018-02-15T20:20:25.548Z,73.00
2018-02-15T20:22:55.955Z,73.00
2018-02-15T20:25:26.408Z,73.00
2018-02-15T20:28:01.919Z,72.90
2018-02-15T20:30:34.569Z,74.00
2018-02-15T20:33:05.902Z,73.20
2018-02-15T20:35:37.037Z,73.40
2018-02-15T20:38:12.313Z,73.40
2018-02-15T20:40:42.694Z,74.20
2018-02-15T20:43:13.562Z,73.40
2018-02-15T20:45:44.726Z,73.90
2018-02-15T20:48:16.461Z,73.90
2018-02-15T20:50:52.753Z,74.10
2018-02-15T20:53:39.365Z,74.10
2018-02-15T20:56:11.033Z,74.00
2018-02-15T20:58:41.438Z,74.00
2018-02-15T21:01:12.162Z,74.10
2018-02-15T21:03:42.609Z,74.10
2018-02-15T21:06:13.003Z,73.80
2018-02-15T21:08:44.776Z,74.10
2018-02-15T21:11:15.398Z,74.10
2018-02-15T21:13:47.902Z,74.10
2018-02-15T21:16:18.318Z,74.10
2018-02-15T21:18:48.719Z,74.00
2018-02-15T21:21:19.845Z,74.00
2018-02-15T21:23:50.282Z,74.00
2018-02-15T21:26:21.769Z,74.00
2018-02-15T21:28:52.225Z,73.90
2018-02-15T21:31:23.747Z,74.10
2018-02-15T21:33:54.157Z,74.30
2018-02-15T21:36:24.563Z,74.40
2018-02-15T21:38:55.757Z,74.90
2018-02-15T21:41:26.138Z,75.60
2018-02-15T21:43:58.441Z,75.60
2018-02-15T21:46:28.915Z,74.80
2018-02-15T21:48:59.334Z,74.70
2018-02-15T21:51:29.711Z,74.60
2018-02-15T21:54:00.097Z,74.60
2018-02-15T21:56:30.473Z,74.60
2018-02-15T21:59:01.133Z,74.50
2018-02-15T22:01:32.545Z,74.50
2018-02-15T22:04:02.953Z,74.50
2018-02-15T22:06:34.058Z,74.30
2018-02-15T22:09:04.565Z,74.20
2018-02-15T22:11:34.969Z,74.20
2018-02-15T22:14:05.395Z,74.20
2018-02-15T22:16:35.857Z,74.10
2018-02-15T22:19:06.614Z,74.00
2018-02-15T22:21:37.015Z,74.10
2018-02-15T22:24:07.438Z,74.00
2018-02-15T22:26:38.645Z,74.10
2018-02-15T22:29:09.056Z,74.00
2018-02-15T22:31:40.870Z,74.20
2018-02-15T22:34:11.246Z,74.20
2018-02-15T22:36:41.703Z,74.00
2018-02-15T22:39:12.074Z,73.90
2018-02-15T22:41:42.511Z,74.00
2018-02-15T22:44:13.979Z,74.20
2018-02-15T22:46:44.461Z,74.00
2018-02-15T22:49:15.160Z,74.00
2018-02-15T22:51:45.602Z,74.00
2018-02-15T22:54:15.974Z,74.00
2018-02-15T22:56:47.186Z,73.80
2018-02-15T22:59:17.642Z,73.80
2018-02-15T23:01:49.177Z,73.70
2018-02-15T23:04:20.035Z,73.80
2018-02-15T23:06:51.187Z,73.70
2018-02-15T23:09:22.385Z,73.90
2018-02-15T23:11:52.819Z,73.90
2018-02-15T23:14:23.281Z,74.30
2018-02-15T23:16:54.433Z,74.80
2018-02-15T23:19:25.133Z,74.80
2018-02-15T23:21:55.564Z,74.80
2018-02-15T23:24:31.385Z,74.80
2018-02-15T23:27:01.869Z,74.70
2018-02-15T23:29:33.042Z,74.40
2018-02-15T23:32:03.565Z,74.40
2018-02-15T23:34:33.910Z,74.40
2018-02-15T23:37:04.458Z,74.50
2018-02-15T23:39:34.862Z,74.60
2018-02-15T23:42:05.228Z,74.40
2018-02-15T23:44:35.639Z,74.40
2018-02-15T23:47:06.057Z,74.20
2018-02-15T23:49:37.745Z,74.60
2018-02-15T23:52:08.931Z,74.90
2018-02-15T23:54:39.319Z,74.90
2018-02-15T23:57:10.457Z,74.60
2018-02-15T23:59:41.646Z,74.70
